sensor_id;sensor_type;location;lat;lon;timestamp;pressure;altitude;pressure_sealevel;temperature;humidity
50518;BME280;37075;44.084;2.962;2024-02-04T00:00:18;99269.38;;;5.42;65.86
50518;BME280;37075;44.084;2.962;2024-02-04T00:03:05;99272.38;;;5.45;65.96
50518;BME280;37075;44.084;2.962;2024-02-04T00:05:51;99272.97;;;5.47;66.05
50518;BME280;37075;44.084;2.962;2024-02-04T00:08:37;99268.09;;;5.49;66.05
50518;BME280;37075;44.084;2.962;2024-02-04T00:11:23;99273.25;;;5.51;66.14
50518;BME280;37075;44.084;2.962;2024-02-04T00:14:09;99272.97;;;5.52;66.23
50518;BME280;37075;44.084;2.962;2024-02-04T00:16:56;99271.91;;;5.53;66.43
50518;BME280;37075;44.084;2.962;2024-02-04T00:19:43;99263.50;;;5.55;66.44
50518;BME280;37075;44.084;2.962;2024-02-04T00:22:29;99256.75;;;5.57;66.50
50518;BME280;37075;44.084;2.962;2024-02-04T00:25:15;99255.94;;;5.57;66.76
50518;BME280;37075;44.084;2.962;2024-02-04T00:28:04;99259.72;;;5.56;66.85
50518;BME280;37075;44.084;2.962;2024-02-04T00:30:51;99253.50;;;5.55;66.81
50518;BME280;37075;44.084;2.962;2024-02-04T00:33:41;99266.78;;;5.57;66.97
50518;BME280;37075;44.084;2.962;2024-02-04T00:36:27;99260.28;;;5.58;67.09
50518;BME280;37075;44.084;2.962;2024-02-04T00:39:13;99257.56;;;5.58;67.14
50518;BME280;37075;44.084;2.962;2024-02-04T00:41:59;99249.19;;;5.60;67.24
50518;BME280;37075;44.084;2.962;2024-02-04T00:44:45;99251.63;;;5.61;67.32
50518;BME280;37075;44.084;2.962;2024-02-04T00:47:31;99244.84;;;5.53;67.54
50518;BME280;37075;44.084;2.962;2024-02-04T00:50:19;99242.69;;;5.55;67.55
50518;BME280;37075;44.084;2.962;2024-02-04T00:53:05;99242.69;;;5.55;67.68
50518;BME280;37075;44.084;2.962;2024-02-04T00:55:51;99243.75;;;5.54;67.60
50518;BME280;37075;44.084;2.962;2024-02-04T00:58:37;99246.19;;;5.56;67.86
50518;BME280;37075;44.084;2.962;2024-02-04T01:01:23;99255.94;;;5.57;67.77
50518;BME280;37075;44.084;2.962;2024-02-04T01:04:09;99255.69;;;5.58;67.78
50518;BME280;37075;44.084;2.962;2024-02-04T01:06:57;99252.97;;;5.58;67.96
50518;BME280;37075;44.084;2.962;2024-02-04T01:09:43;99250.28;;;5.58;68.04
50518;BME280;37075;44.084;2.962;2024-02-04T01:12:29;99255.66;;;5.48;68.25
50518;BME280;37075;44.084;2.962;2024-02-04T01:15:15;99265.59;;;5.43;68.68
50518;BME280;37075;44.084;2.962;2024-02-04T01:18:00;99263.16;;;5.41;68.45
50518;BME280;37075;44.084;2.962;2024-02-04T01:20:46;99258.56;;;5.42;68.40
50518;BME280;37075;44.084;2.962;2024-02-04T01:23:33;99246.91;;;5.41;68.56
50518;BME280;37075;44.084;2.962;2024-02-04T01:26:20;99255.84;;;5.37;68.83
50518;BME280;37075;44.084;2.962;2024-02-04T01:29:08;99262.88;;;5.38;68.64
50518;BME280;37075;44.084;2.962;2024-02-04T01:31:54;99252.88;;;5.38;68.52
50518;BME280;37075;44.084;2.962;2024-02-04T01:34:40;99258.28;;;5.38;68.48
50518;BME280;37075;44.084;2.962;2024-02-04T01:37:27;99265.06;;;5.41;68.71
50518;BME280;37075;44.084;2.962;2024-02-04T01:40:14;99266.41;;;5.43;68.65
50518;BME280;37075;44.084;2.962;2024-02-04T01:43:00;99271.00;;;5.43;68.59
50518;BME280;37075;44.084;2.962;2024-02-04T01:45:46;99272.09;;;5.42;68.65
50518;BME280;37075;44.084;2.962;2024-02-04T01:48:31;99265.88;;;5.41;68.74
50518;BME280;37075;44.084;2.962;2024-02-04T01:51:19;99271.00;;;5.43;68.81
50518;BME280;37075;44.084;2.962;2024-02-04T01:54:07;99276.94;;;5.40;68.84
50518;BME280;37075;44.084;2.962;2024-02-04T01:56:55;99283.41;;;5.34;69.13
50518;BME280;37075;44.084;2.962;2024-02-04T01:59:41;99284.78;;;5.36;69.26
50518;BME280;37075;44.084;2.962;2024-02-04T02:02:27;99282.34;;;5.40;68.87
50518;BME280;37075;44.084;2.962;2024-02-04T02:05:13;99283.72;;;5.42;69.08
50518;BME280;37075;44.084;2.962;2024-02-04T02:07:59;99278.88;;;5.44;68.94
50518;BME280;37075;44.084;2.962;2024-02-04T02:10:46;99288.38;;;5.47;69.01
50518;BME280;37075;44.084;2.962;2024-02-04T02:13:36;99266.47;;;5.48;68.92
50518;BME280;37075;44.084;2.962;2024-02-04T02:16:23;99267.84;;;5.51;68.99
50518;BME280;37075;44.084;2.962;2024-02-04T02:19:22;99273.25;;;5.51;68.98
50518;BME280;37075;44.084;2.962;2024-02-04T02:22:25;99268.91;;;5.50;69.25
50518;BME280;37075;44.084;2.962;2024-02-04T02:25:13;99273.78;;;5.48;69.35
50518;BME280;37075;44.084;2.962;2024-02-04T02:28:00;99270.25;;;5.47;69.02
50518;BME280;37075;44.084;2.962;2024-02-04T02:30:45;99262.13;;;5.47;68.86
50518;BME280;37075;44.084;2.962;2024-02-04T02:33:31;99278.38;;;5.47;68.99
50518;BME280;37075;44.084;2.962;2024-02-04T02:36:21;99270.25;;;5.47;69.16
50518;BME280;37075;44.084;2.962;2024-02-04T02:39:10;99265.66;;;5.48;69.08
50518;BME280;37075;44.084;2.962;2024-02-04T02:42:01;99264.31;;;5.50;69.05
50518;BME280;37075;44.084;2.962;2024-02-04T02:44:50;99267.56;;;5.52;69.08
50518;BME280;37075;44.084;2.962;2024-02-04T02:47:37;99264.34;;;5.55;68.83
50518;BME280;37075;44.084;2.962;2024-02-04T02:50:24;99269.47;;;5.57;69.01
50518;BME280;37075;44.084;2.962;2024-02-04T02:53:10;99266.50;;;5.58;69.06
50518;BME280;37075;44.084;2.962;2024-02-04T02:55:55;99269.22;;;5.58;69.20
50518;BME280;37075;44.084;2.962;2024-02-04T02:58:43;99259.19;;;5.59;69.02
50518;BME280;37075;44.084;2.962;2024-02-04T03:01:30;99255.41;;;5.60;69.13
50518;BME280;37075;44.084;2.962;2024-02-04T03:04:16;99265.97;;;5.62;69.02
50518;BME280;37075;44.084;2.962;2024-02-04T03:07:02;99262.19;;;5.63;69.04
50518;BME280;37075;44.084;2.962;2024-02-04T03:09:49;99253.00;;;5.64;68.93
50518;BME280;37075;44.084;2.962;2024-02-04T03:12:34;99245.41;;;5.66;69.08
50518;BME280;37075;44.084;2.962;2024-02-04T03:15:21;99236.22;;;5.67;69.02
50518;BME280;37075;44.084;2.962;2024-02-04T03:18:07;99242.19;;;5.69;69.05
50518;BME280;37075;44.084;2.962;2024-02-04T03:20:53;99242.19;;;5.69;68.95
50518;BME280;37075;44.084;2.962;2024-02-04T03:23:40;99237.31;;;5.66;69.05
50518;BME280;37075;44.084;2.962;2024-02-04T03:26:26;99239.19;;;5.65;69.15
50518;BME280;37075;44.084;2.962;2024-02-04T03:29:12;99238.94;;;5.67;69.12
50518;BME280;37075;44.084;2.962;2024-02-04T03:32:00;99233.25;;;5.68;69.21
50518;BME280;37075;44.084;2.962;2024-02-04T03:34:46;99226.50;;;5.71;69.17
50518;BME280;37075;44.084;2.962;2024-02-04T03:37:32;99237.59;;;5.69;69.23
50518;BME280;37075;44.084;2.962;2024-02-04T03:40:17;99235.41;;;5.66;69.41
50518;BME280;37075;44.084;2.962;2024-02-04T03:43:07;99226.47;;;5.66;69.42
50518;BME280;37075;44.084;2.962;2024-02-04T03:45:53;99218.09;;;5.67;69.49
50518;BME280;37075;44.084;2.962;2024-02-04T03:48:40;99215.66;;;5.66;69.38
50518;BME280;37075;44.084;2.962;2024-02-04T03:51:26;99219.41;;;5.60;69.79
50518;BME280;37075;44.084;2.962;2024-02-04T03:54:12;99229.97;;;5.61;69.83
50518;BME280;37075;44.084;2.962;2024-02-04T03:56:58;99223.75;;;5.61;69.65
50518;BME280;37075;44.084;2.962;2024-02-04T03:59:44;99228.09;;;5.62;69.72
50518;BME280;37075;44.084;2.962;2024-02-04T04:02:31;99222.13;;;5.65;69.94
50518;BME280;37075;44.084;2.962;2024-02-04T04:05:18;99224.31;;;5.68;69.90
50518;BME280;37075;44.084;2.962;2024-02-04T04:08:04;99228.13;;;5.72;69.86
50518;BME280;37075;44.084;2.962;2024-02-04T04:10:50;99230.06;;;5.76;69.94
50518;BME280;37075;44.084;2.962;2024-02-04T04:13:37;99223.28;;;5.79;69.95
50518;BME280;37075;44.084;2.962;2024-02-04T04:16:23;99230.06;;;5.81;69.94
50518;BME280;37075;44.084;2.962;2024-02-04T04:19:09;99229.81;;;5.83;69.90
50518;BME280;37075;44.084;2.962;2024-02-04T04:21:56;99224.94;;;5.85;69.83
50518;BME280;37075;44.084;2.962;2024-02-04T04:24:44;99230.34;;;5.85;70.05
50518;BME280;37075;44.084;2.962;2024-02-04T04:27:30;99231.16;;;5.85;70.06
50518;BME280;37075;44.084;2.962;2024-02-04T04:30:16;99227.63;;;5.85;70.08
50518;BME280;37075;44.084;2.962;2024-02-04T04:33:02;99231.16;;;5.85;70.13
50518;BME280;37075;44.084;2.962;2024-02-04T04:35:48;99215.44;;;5.82;70.57
50518;BME280;37075;44.084;2.962;2024-02-04T04:38:35;99217.63;;;5.80;70.58
50518;BME280;37075;44.084;2.962;2024-02-04T04:41:21;99234.34;;;5.72;70.66
50518;BME280;37075;44.084;2.962;2024-02-04T04:44:07;99231.59;;;5.62;70.69
50518;BME280;37075;44.084;2.962;2024-02-04T04:46:53;99235.16;;;5.68;70.56
50518;BME280;37075;44.084;2.962;2024-02-04T04:49:39;99237.06;;;5.72;70.53
50518;BME280;37075;44.084;2.962;2024-02-04T04:52:25;99238.44;;;5.75;70.39
50518;BME280;37075;44.084;2.962;2024-02-04T04:55:12;99242.47;;;5.72;70.57
50518;BME280;37075;44.084;2.962;2024-02-04T04:57:58;99238.94;;;5.72;70.66
50518;BME280;37075;44.084;2.962;2024-02-04T05:00:44;99235.19;;;5.73;70.71
50518;BME280;37075;44.084;2.962;2024-02-04T05:03:29;99253.88;;;5.74;70.44
50518;BME280;37075;44.084;2.962;2024-02-04T05:06:15;99236.56;;;5.75;70.57
50518;BME280;37075;44.084;2.962;2024-02-04T05:09:01;99231.63;;;5.72;70.73
50518;BME280;37075;44.084;2.962;2024-02-04T05:11:48;99219.97;;;5.67;71.13
50518;BME280;37075;44.084;2.962;2024-02-04T05:14:35;99215.38;;;5.62;71.24
50518;BME280;37075;44.084;2.962;2024-02-04T05:17:21;99222.94;;;5.60;70.83
50518;BME280;37075;44.084;2.962;2024-02-04T05:20:08;99231.84;;;5.50;70.96
50518;BME280;37075;44.084;2.962;2024-02-04T05:22:54;99226.97;;;5.52;70.91
50518;BME280;37075;44.084;2.962;2024-02-04T05:25:41;99222.66;;;5.62;70.98
50518;BME280;37075;44.084;2.962;2024-02-04T05:28:29;99220.50;;;5.64;70.79
50518;BME280;37075;44.084;2.962;2024-02-04T05:31:15;99233.22;;;5.63;70.95
50518;BME280;37075;44.084;2.962;2024-02-04T05:34:05;99230.25;;;5.65;70.86
50518;BME280;37075;44.084;2.962;2024-02-04T05:36:52;99241.63;;;5.67;70.74
50518;BME280;37075;44.084;2.962;2024-02-04T05:39:38;99230.81;;;5.67;70.66
50518;BME280;37075;44.084;2.962;2024-02-04T05:42:24;99238.94;;;5.67;70.79
50518;BME280;37075;44.084;2.962;2024-02-04T05:45:11;99232.69;;;5.61;70.96
50518;BME280;37075;44.084;2.962;2024-02-04T05:47:58;99229.44;;;5.64;70.78
50518;BME280;37075;44.084;2.962;2024-02-04T05:50:43;99229.16;;;5.55;70.88
50518;BME280;37075;44.084;2.962;2024-02-04T05:53:29;99217.25;;;5.56;71.03
50518;BME280;37075;44.084;2.962;2024-02-04T05:56:15;99220.50;;;5.58;70.82
50518;BME280;37075;44.084;2.962;2024-02-04T05:59:02;99230.53;;;5.63;70.80
50518;BME280;37075;44.084;2.962;2024-02-04T06:01:49;99227.28;;;5.66;70.80
50518;BME280;37075;44.084;2.962;2024-02-04T06:04:35;99247.06;;;5.67;70.73
50518;BME280;37075;44.084;2.962;2024-02-04T06:07:21;99249.22;;;5.70;70.59
50518;BME280;37075;44.084;2.962;2024-02-04T06:10:09;99251.97;;;5.75;70.63
50518;BME280;37075;44.084;2.962;2024-02-04T06:12:55;99266.63;;;5.79;70.68
50518;BME280;37075;44.084;2.962;2024-02-04T06:15:40;99260.66;;;5.82;70.56
50518;BME280;37075;44.084;2.962;2024-02-04T06:18:28;99264.72;;;5.84;70.61
50518;BME280;37075;44.084;2.962;2024-02-04T06:21:14;99273.94;;;5.83;70.68
50518;BME280;37075;44.084;2.962;2024-02-04T06:24:00;99274.47;;;5.85;70.54
50518;BME280;37075;44.084;2.962;2024-02-04T06:26:45;99268.00;;;5.86;70.51
50518;BME280;37075;44.084;2.962;2024-02-04T06:29:31;99267.44;;;5.84;70.55
50518;BME280;37075;44.084;2.962;2024-02-04T06:32:17;99274.47;;;5.80;70.72
50518;BME280;37075;44.084;2.962;2024-02-04T06:35:07;99280.41;;;5.77;70.69
50518;BME280;37075;44.084;2.962;2024-02-04T06:37:53;99283.41;;;5.81;70.90
50518;BME280;37075;44.084;2.962;2024-02-04T06:40:39;99275.81;;;5.83;70.52
50518;BME280;37075;44.084;2.962;2024-02-04T06:43:24;99281.53;;;5.86;70.58
50518;BME280;37075;44.084;2.962;2024-02-04T06:46:11;99287.25;;;5.90;70.60
50518;BME280;37075;44.084;2.962;2024-02-04T06:48:56;99291.06;;;5.94;70.53
50518;BME280;37075;44.084;2.962;2024-02-04T06:51:44;99289.97;;;5.95;70.53
50518;BME280;37075;44.084;2.962;2024-02-04T06:54:30;99295.72;;;5.99;70.48
50518;BME280;37075;44.084;2.962;2024-02-04T06:57:16;99307.09;;;6.01;70.46
50518;BME280;37075;44.084;2.962;2024-02-04T07:00:03;99296.00;;;6.02;70.36
50518;BME280;37075;44.084;2.962;2024-02-04T07:02:50;99303.84;;;6.04;70.31
50518;BME280;37075;44.084;2.962;2024-02-04T07:05:36;99300.06;;;6.05;70.51
50518;BME280;37075;44.084;2.962;2024-02-04T07:08:23;99302.50;;;6.06;70.49
50518;BME280;37075;44.084;2.962;2024-02-04T07:11:09;99313.34;;;6.06;70.37
50518;BME280;37075;44.084;2.962;2024-02-04T07:13:55;99312.81;;;6.09;70.37
50518;BME280;37075;44.084;2.962;2024-02-04T07:16:45;99310.91;;;6.10;70.28
50518;BME280;37075;44.084;2.962;2024-02-04T07:19:31;99308.19;;;6.10;70.30
50518;BME280;37075;44.084;2.962;2024-02-04T07:22:16;99312.53;;;6.11;70.19
50518;BME280;37075;44.084;2.962;2024-02-04T07:25:04;99308.19;;;6.05;70.26
50518;BME280;37075;44.084;2.962;2024-02-04T07:27:50;99313.88;;;6.03;70.33
50518;BME280;37075;44.084;2.962;2024-02-04T07:30:36;99314.69;;;6.04;70.28
50518;BME280;37075;44.084;2.962;2024-02-04T07:33:22;99309.78;;;6.01;70.29
50518;BME280;37075;44.084;2.962;2024-02-04T07:36:10;99317.38;;;5.99;70.31
50518;BME280;37075;44.084;2.962;2024-02-04T07:38:56;99327.34;;;5.98;70.28
50518;BME280;37075;44.084;2.962;2024-02-04T07:41:43;99326.03;;;6.01;70.22
50518;BME280;37075;44.084;2.962;2024-02-04T07:44:29;99323.88;;;6.03;70.25
50518;BME280;37075;44.084;2.962;2024-02-04T07:47:16;99326.88;;;6.06;70.33
50518;BME280;37075;44.084;2.962;2024-02-04T07:50:02;99315.50;;;6.09;70.11
50518;BME280;37075;44.084;2.962;2024-02-04T07:52:48;99333.94;;;6.12;70.33
50518;BME280;37075;44.084;2.962;2024-02-04T07:55:33;99328.25;;;6.14;70.13
50518;BME280;37075;44.084;2.962;2024-02-04T07:58:21;99337.75;;;6.16;70.21
50518;BME280;37075;44.084;2.962;2024-02-04T08:01:07;99335.56;;;6.18;70.23
50518;BME280;37075;44.084;2.962;2024-02-04T08:03:53;99326.91;;;6.22;70.20
50518;BME280;37075;44.084;2.962;2024-02-04T08:06:39;99325.84;;;6.23;70.11
50518;BME280;37075;44.084;2.962;2024-02-04T08:09:25;99328.03;;;6.26;69.82
50518;BME280;37075;44.084;2.962;2024-02-04T08:12:10;99332.13;;;6.28;70.02
50518;BME280;37075;44.084;2.962;2024-02-04T08:14:58;99332.66;;;6.30;70.06
50518;BME280;37075;44.084;2.962;2024-02-04T08:17:44;99327.53;;;6.34;70.12
50518;BME280;37075;44.084;2.962;2024-02-04T08:20:30;99326.97;;;6.37;70.18
50518;BME280;37075;44.084;2.962;2024-02-04T08:23:15;99329.97;;;6.40;70.16
50518;BME280;37075;44.084;2.962;2024-02-04T08:26:02;99327.00;;;6.42;70.04
50518;BME280;37075;44.084;2.962;2024-02-04T08:28:48;99331.06;;;6.44;70.08
50518;BME280;37075;44.084;2.962;2024-02-04T08:31:35;99336.22;;;6.46;70.15
50518;BME280;37075;44.084;2.962;2024-02-04T08:34:22;99334.03;;;6.48;70.04
50518;BME280;37075;44.084;2.962;2024-02-04T08:37:08;99334.59;;;6.50;70.19
50518;BME280;37075;44.084;2.962;2024-02-04T08:39:55;99338.16;;;6.51;70.08
50518;BME280;37075;44.084;2.962;2024-02-04T08:42:41;99334.91;;;6.54;69.99
50518;BME280;37075;44.084;2.962;2024-02-04T08:45:27;99333.53;;;6.56;70.03
50518;BME280;37075;44.084;2.962;2024-02-04T08:48:15;99343.84;;;6.59;70.24
50518;BME280;37075;44.084;2.962;2024-02-04T08:51:01;99347.66;;;6.63;70.20
50518;BME280;37075;44.084;2.962;2024-02-04T08:53:47;99350.63;;;6.67;70.16
50518;BME280;37075;44.084;2.962;2024-02-04T08:56:33;99354.44;;;6.71;70.00
50518;BME280;37075;44.084;2.962;2024-02-04T08:59:19;99348.75;;;6.72;70.02
50518;BME280;37075;44.084;2.962;2024-02-04T09:02:05;99352.31;;;6.78;70.03
50518;BME280;37075;44.084;2.962;2024-02-04T09:04:53;99345.53;;;6.80;70.08
50518;BME280;37075;44.084;2.962;2024-02-04T09:07:39;99353.94;;;6.84;70.05
50518;BME280;37075;44.084;2.962;2024-02-04T09:10:25;99339.56;;;6.89;69.98
50518;BME280;37075;44.084;2.962;2024-02-04T09:13:11;99341.19;;;6.90;69.88
50518;BME280;37075;44.084;2.962;2024-02-04T09:15:57;99349.59;;;6.93;69.93
50518;BME280;37075;44.084;2.962;2024-02-04T09:18:43;99346.63;;;6.90;69.72
50518;BME280;37075;44.084;2.962;2024-02-04T09:21:31;99356.91;;;6.88;69.84
50518;BME280;37075;44.084;2.962;2024-02-04T09:24:17;99353.66;;;6.86;69.82
50518;BME280;37075;44.084;2.962;2024-02-04T09:27:04;99359.09;;;6.86;69.89
50518;BME280;37075;44.084;2.962;2024-02-04T09:29:50;99348.25;;;6.86;69.72
50518;BME280;37075;44.084;2.962;2024-02-04T09:32:36;99355.28;;;6.87;69.75
50518;BME280;37075;44.084;2.962;2024-02-04T09:35:22;99342.53;;;6.87;69.81
50518;BME280;37075;44.084;2.962;2024-02-04T09:38:09;99341.72;;;6.92;69.84
50518;BME280;37075;44.084;2.962;2024-02-04T09:40:56;99344.16;;;6.93;69.32
50518;BME280;37075;44.084;2.962;2024-02-04T09:43:43;99341.72;;;6.87;69.19
50518;BME280;37075;44.084;2.962;2024-02-04T09:46:30;99339.56;;;6.89;69.47
50518;BME280;37075;44.084;2.962;2024-02-04T09:49:16;99342.00;;;6.95;69.54
50518;BME280;37075;44.084;2.962;2024-02-04T09:52:06;99341.19;;;7.00;69.43
50518;BME280;37075;44.084;2.962;2024-02-04T09:54:59;99343.34;;;6.98;69.51
50518;BME280;37075;44.084;2.962;2024-02-04T09:57:45;99347.97;;;7.02;69.39
50518;BME280;37075;44.084;2.962;2024-02-04T10:00:33;99347.44;;;7.05;69.49
50518;BME280;37075;44.084;2.962;2024-02-04T10:03:19;99348.81;;;7.13;69.64
50518;BME280;37075;44.084;2.962;2024-02-04T10:06:06;99354.75;;;7.25;69.69
50518;BME280;37075;44.084;2.962;2024-02-04T10:08:52;99362.09;;;7.35;69.75
50518;BME280;37075;44.084;2.962;2024-02-04T10:11:39;99362.91;;;7.40;69.59
50518;BME280;37075;44.084;2.962;2024-02-04T10:14:25;99360.72;;;7.42;69.48
50518;BME280;37075;44.084;2.962;2024-02-04T10:17:13;99361.53;;;7.48;69.54
50518;BME280;37075;44.084;2.962;2024-02-04T10:20:01;99366.16;;;7.58;69.47
50518;BME280;37075;44.084;2.962;2024-02-04T10:22:47;99351.47;;;7.64;69.32
50518;BME280;37075;44.084;2.962;2024-02-04T10:25:34;99366.41;;;7.66;68.88
50518;BME280;37075;44.084;2.962;2024-02-04T10:28:22;99359.06;;;7.72;68.73
50518;BME280;37075;44.084;2.962;2024-02-04T10:31:08;99358.53;;;7.70;68.13
50518;BME280;37075;44.084;2.962;2024-02-04T10:33:55;99356.34;;;7.72;68.28
50518;BME280;37075;44.084;2.962;2024-02-04T10:36:41;99359.06;;;7.72;68.55
50518;BME280;37075;44.084;2.962;2024-02-04T10:39:27;99356.09;;;7.68;68.04
50518;BME280;37075;44.084;2.962;2024-02-04T10:42:15;99360.72;;;7.58;68.04
50518;BME280;37075;44.084;2.962;2024-02-04T10:45:07;99357.72;;;7.64;68.26
50518;BME280;37075;44.084;2.962;2024-02-04T10:47:56;99356.88;;;7.74;68.44
50518;BME280;37075;44.084;2.962;2024-02-04T10:50:43;99352.53;;;7.83;68.58
50518;BME280;37075;44.084;2.962;2024-02-04T10:53:33;99340.03;;;7.77;68.55
50518;BME280;37075;44.084;2.962;2024-02-04T10:56:22;99337.88;;;7.84;68.27
50518;BME280;37075;44.084;2.962;2024-02-04T10:59:09;99334.03;;;7.90;68.34
50518;BME280;37075;44.084;2.962;2024-02-04T11:01:58;99333.16;;;8.05;68.50
50518;BME280;37075;44.084;2.962;2024-02-04T11:04:45;99330.16;;;8.17;68.51
50518;BME280;37075;44.084;2.962;2024-02-04T11:07:37;99323.03;;;8.26;68.40
50518;BME280;37075;44.084;2.962;2024-02-04T11:10:24;99327.13;;;8.33;68.05
50518;BME280;37075;44.084;2.962;2024-02-04T11:13:14;99326.25;;;8.43;68.42
50518;BME280;37075;44.084;2.962;2024-02-04T11:16:06;99324.31;;;8.49;68.41
50518;BME280;37075;44.084;2.962;2024-02-04T11:19:11;99322.34;;;8.59;68.59
50518;BME280;37075;44.084;2.962;2024-02-04T11:25:42;99314.31;;;8.78;68.10
50518;BME280;37075;44.084;2.962;2024-02-04T11:28:29;99311.56;;;8.83;68.04
50518;BME280;37075;44.084;2.962;2024-02-04T11:31:17;99312.88;;;8.91;68.07
50518;BME280;37075;44.084;2.962;2024-02-04T11:34:05;99304.63;;;9.01;68.03
50518;BME280;37075;44.084;2.962;2024-02-04T11:36:52;99295.84;;;9.09;67.93
50518;BME280;37075;44.084;2.962;2024-02-04T11:39:48;99291.69;;;9.22;68.06
50518;BME280;37075;44.084;2.962;2024-02-04T11:42:34;99285.31;;;9.32;67.93
50518;BME280;37075;44.084;2.962;2024-02-04T11:45:20;99275.22;;;9.37;67.66
50518;BME280;37075;44.084;2.962;2024-02-04T11:48:08;99276.44;;;9.50;67.87
50518;BME280;37075;44.084;2.962;2024-02-04T11:50:56;99274.09;;;9.62;67.94
50518;BME280;37075;44.084;2.962;2024-02-04T11:53:42;99259.34;;;9.68;67.40
50518;BME280;37075;44.084;2.962;2024-02-04T11:56:29;99261.06;;;9.59;67.36
50518;BME280;37075;44.084;2.962;2024-02-04T11:59:17;99251.75;;;9.65;66.99
50518;BME280;37075;44.084;2.962;2024-02-04T12:02:06;99254.28;;;9.56;66.99
50518;BME280;37075;44.084;2.962;2024-02-04T12:04:52;99240.28;;;9.68;66.96
50518;BME280;37075;44.084;2.962;2024-02-04T12:07:40;99236.91;;;9.76;66.71
50518;BME280;37075;44.084;2.962;2024-02-04T12:10:27;99227.25;;;9.84;66.70
50518;BME280;37075;44.084;2.962;2024-02-04T12:13:14;99219.88;;;9.89;66.62
50518;BME280;37075;44.084;2.962;2024-02-04T12:16:01;99215.16;;;9.95;66.46
50518;BME280;37075;44.084;2.962;2024-02-04T12:18:48;99206.38;;;9.98;66.36
50518;BME280;37075;44.084;2.962;2024-02-04T12:21:34;99204.41;;;10.04;66.43
50518;BME280;37075;44.084;2.962;2024-02-04T12:24:22;99202.41;;;10.09;66.63
50518;BME280;37075;44.084;2.962;2024-02-04T12:27:08;99191.97;;;10.16;66.57
50518;BME280;37075;44.084;2.962;2024-02-04T12:29:55;99182.63;;;10.23;66.54
50518;BME280;37075;44.084;2.962;2024-02-04T12:32:41;99184.47;;;10.27;66.33
50518;BME280;37075;44.084;2.962;2024-02-04T12:35:28;99161.53;;;10.28;66.52
50518;BME280;37075;44.084;2.962;2024-02-04T12:38:16;99154.16;;;10.29;66.35
50518;BME280;37075;44.084;2.962;2024-02-04T12:41:04;99157.13;;;10.32;66.25
50518;BME280;37075;44.084;2.962;2024-02-04T12:43:51;99154.91;;;10.34;66.29
50518;BME280;37075;44.084;2.962;2024-02-04T12:46:37;99150.25;;;10.35;66.46
50518;BME280;37075;44.084;2.962;2024-02-04T12:49:24;99148.53;;;10.39;66.40
50518;BME280;37075;44.084;2.962;2024-02-04T12:52:10;99144.44;;;10.41;66.85
50518;BME280;37075;44.084;2.962;2024-02-04T12:54:56;99142.13;;;10.48;66.94
50518;BME280;37075;44.084;2.962;2024-02-04T12:57:44;99123.66;;;10.59;67.23
50518;BME280;37075;44.084;2.962;2024-02-04T13:00:30;99128.97;;;10.69;67.28
50518;BME280;37075;44.084;2.962;2024-02-04T13:03:17;99115.34;;;10.83;67.69
50518;BME280;37075;44.084;2.962;2024-02-04T13:06:03;99104.81;;;10.90;67.60
50518;BME280;37075;44.084;2.962;2024-02-04T13:08:54;99109.19;;;11.05;67.63
50518;BME280;37075;44.084;2.962;2024-02-04T13:11:42;99090.59;;;11.21;67.60
50518;BME280;37075;44.084;2.962;2024-02-04T13:14:30;99092.41;;;11.39;67.51
50518;BME280;37075;44.084;2.962;2024-02-04T13:17:16;99086.81;;;11.58;67.52
50518;BME280;37075;44.084;2.962;2024-02-04T13:20:03;99082.81;;;11.78;67.31
50518;BME280;37075;44.084;2.962;2024-02-04T13:22:50;99073.66;;;11.96;67.36
50518;BME280;37075;44.084;2.962;2024-02-04T13:25:38;99065.28;;;12.15;67.10
50518;BME280;37075;44.084;2.962;2024-02-04T13:28:24;99070.91;;;12.32;66.62
50518;BME280;37075;44.084;2.962;2024-02-04T13:31:12;99059.75;;;12.51;66.40
50518;BME280;37075;44.084;2.962;2024-02-04T13:33:58;99057.59;;;12.70;66.02
50518;BME280;37075;44.084;2.962;2024-02-04T13:36:48;99045.44;;;12.93;66.00
50518;BME280;37075;44.084;2.962;2024-02-04T13:39:35;99047.31;;;13.15;65.84
50518;BME280;37075;44.084;2.962;2024-02-04T13:42:21;99044.97;;;13.40;65.93
50518;BME280;37075;44.084;2.962;2024-02-04T13:45:07;99036.94;;;13.61;65.60
50518;BME280;37075;44.084;2.962;2024-02-04T13:47:55;99033.25;;;13.82;65.40
50518;BME280;37075;44.084;2.962;2024-02-04T13:50:42;99020.00;;;14.02;65.07
50518;BME280;37075;44.084;2.962;2024-02-04T13:53:30;99031.13;;;14.23;64.63
50518;BME280;37075;44.084;2.962;2024-02-04T13:56:19;99022.06;;;14.39;64.30
50518;BME280;37075;44.084;2.962;2024-02-04T13:59:05;99019.59;;;14.55;63.82
50518;BME280;37075;44.084;2.962;2024-02-04T14:01:52;99019.53;;;14.72;63.67
50518;BME280;37075;44.084;2.962;2024-02-04T14:04:39;99012.25;;;14.85;63.32
50518;BME280;37075;44.084;2.962;2024-02-04T14:07:26;99015.88;;;14.98;62.84
50518;BME280;37075;44.084;2.962;2024-02-04T14:10:12;99015.50;;;15.08;62.45
50518;BME280;37075;44.084;2.962;2024-02-04T14:12:59;99011.91;;;15.16;62.18
50518;BME280;37075;44.084;2.962;2024-02-04T14:15:45;99013.75;;;15.33;61.82
50518;BME280;37075;44.084;2.962;2024-02-04T14:18:31;99006.38;;;15.46;61.54
50518;BME280;37075;44.084;2.962;2024-02-04T14:21:18;99013.75;;;15.54;61.26
50518;BME280;37075;44.084;2.962;2024-02-04T14:24:05;99006.09;;;15.68;61.16
50518;BME280;37075;44.084;2.962;2024-02-04T14:26:56;99009.38;;;15.82;60.92
50518;BME280;37075;44.084;2.962;2024-02-04T14:29:42;99007.16;;;15.96;60.83
50518;BME280;37075;44.084;2.962;2024-02-04T14:32:28;99005.25;;;16.09;60.64
50518;BME280;37075;44.084;2.962;2024-02-04T14:35:14;99005.63;;;16.20;60.11
50518;BME280;37075;44.084;2.962;2024-02-04T14:38:02;98999.69;;;16.30;60.24
50518;BME280;37075;44.084;2.962;2024-02-04T14:40:48;99000.88;;;16.41;59.74
50518;BME280;37075;44.084;2.962;2024-02-04T14:43:35;98994.13;;;16.51;59.40
50518;BME280;37075;44.084;2.962;2024-02-04T14:46:21;98992.41;;;16.58;59.04
50518;BME280;37075;44.084;2.962;2024-02-04T14:49:07;98992.19;;;16.63;59.15
50518;BME280;37075;44.084;2.962;2024-02-04T14:51:53;98984.09;;;16.67;58.75
50518;BME280;37075;44.084;2.962;2024-02-04T14:54:41;98987.53;;;16.76;58.55
50518;BME280;37075;44.084;2.962;2024-02-04T14:57:28;98994.41;;;16.82;58.38